BGGHBGBW

Guest
Details From BGGH - Nuuk
To BGBW - Narsarsuaq
Flight Number -
Tags generated
Created
Modified
Stats Distance 309 nm / 573 km
Max Altitude 19,500 ft / 5,944 m
Waypoints 4
Social Downloads 1
Likes 0
Share VATSIM

Download

Looking for another format? Having issues loading an existing format? Contact us
Advertisement - Login to hide

Notes

Basic altitude profile: - Ascent Rate: 1000ft/min - Ascent Speed: 100kts - Cruise Altitude: 8000ft - Cruise Speed: 150kts - Descent Rate: 1000ft/min - Descent Speed: 100kts Options: - Use NATs: no - Use PACOTS: no - Use low airways: no - Use high airways: yes

Route

BGGH KU 5E59 SI BGBW

ID Type Via Altitude Latitude Longitude Leg Dist Tot Dist Heading (true) Name
O BGGH APT - 0 ft / 0 m 64.19302˚ -51.67645˚ - 0 nm - Nuuk
KU NDB - 4,100 ft / 1,250 m 64.07000˚ -52.01306˚ 11 nm 11 nm 230° / 230° KOOK ISLANDS NDB
SI NDB 5E59 (AWY-HI) 19,500 ft / 5,944 m 60.68167˚ -46.59611˚ 253 nm 264 nm 141° / 146° SIMIUTAQ NDB
O BGBW APT - 0 ft / 0 m 61.16052˚ -45.42598˚ 44 nm 309 nm 49° / 50° Narsarsuaq

Altitude Profile

Advertisement - Login to hide

Weather


0- 5 10 15 20 25 30 35+ Temperature / ° C

Clouds and Precipitation
Forecast for 2017-12-18 18:00 UTC. Updated 2 minutes ago

Ground ~20,000 ft ~40,000 ft Winds

BGGH

Details ICAO BGGH (GOH)
Name Nuuk
Region Greenland
Timezone America/Godthab (UTC-3.0)
Stats Elevation 283 ft / 86 m (AMSL)
Location 64.193021° -51.676454°
Runways 1
Magnetic Variation 27.015° W

METAR

BGGH 181250Z 30003KT 1000 -SN BKN014 OVC023 M05/M05 Q0981

Decode

TAF

Not found

Departure Runways

ID Width Length Bearing (true) Bearing (mag) Surface Threshold Offset Overrun Length
05 98 ft / 30 m 3,113 ft / 949 m 18.44° 45.46° Asphalt 0 ft / 0 m 0 ft / 0 m
23 98 ft / 30 m 3,113 ft / 949 m 198.44° 225.46° Asphalt 0 ft / 0 m 0 ft / 0 m

BGBW

Details ICAO BGBW (UAK)
Name Narsarsuaq
Region Greenland
Timezone America/Godthab (UTC-3.0)
Stats Elevation 112 ft / 34 m (AMSL)
Location 61.160516° -45.425976°
Runways 1
Magnetic Variation 22.902° W

METAR

BGBW 181250Z 19004KT 160V220 4000 -SHSN VV016 M02/M06 Q0977

Decode

TAF

Not found

Destination Runways

ID Width Length Bearing (true) Bearing (mag) Surface Threshold Offset Overrun Length
07 148 ft / 45 m 5,921 ft / 1,805 m 40.57° 63.47° Concrete 0 ft / 0 m 0 ft / 0 m
25 148 ft / 45 m 5,921 ft / 1,805 m 220.58° 243.48° Concrete 0 ft / 0 m 279 ft / 85 m

Popular Alternatives